CheckWX is a tool to help pilots better visualize weather data.  It is not intended as a substitute for an official pre-flight weather briefing.

04:57:41 UTC

KREG METAR
Louisiana Regional Airport
Gonzales, Louisiana, USA
Current

43 mins ago

KREG 240415Z AUTO 02009KT 10SM OVC048 25/20 A2998 RMK AO2 T02460204
Observed
Jul-24 @ 04:15 UTC
Wind
  • 020° at 9 KTS
Visibility
10 SM
Flight Rules
VFR
Cloud Levels
  • Overcast at 4,800' AGL
Temperature
25°C / 77°F
Dewpoint
20°C / 68°F
Humidity
74%
Altimeter
29.98" Hg
Pressure
1015.22 hPa
Previous

1 hour ago

KREG 240355Z AUTO 01004KT 10SM SCT043 OVC049 25/21 A2998 RMK AO2 LTG DSNT SE AND S T02490212
Observed
Jul-24 @ 03:55 UTC
Wind
  • 010° at 4 KTS
Visibility
10 SM
Flight Rules
VFR
Cloud Levels
  • Scattered at 4,300' AGL
  • Overcast at 4,900' AGL
Temperature
25°C / 77°F
Dewpoint
21°C / 70°F
Humidity
79%
Altimeter
29.98" Hg
Pressure
1015.22 hPa
Previous

1 hour ago

KREG 240335Z AUTO 03003KT 10SM SCT043 OVC049 25/22 A2999 RMK AO2 LTG DSNT SE T02500216
Observed
Jul-24 @ 03:35 UTC
Wind
  • 030° at 3 KTS
Visibility
10 SM
Flight Rules
VFR
Cloud Levels
  • Scattered at 4,300' AGL
  • Overcast at 4,900' AGL
Temperature
25°C / 77°F
Dewpoint
22°C / 72°F
Humidity
83%
Altimeter
29.99" Hg
Pressure
1015.62 hPa